createdAt,value
2023-01-09T00:01:36.243Z,19.17
2023-01-09T00:04:04.563Z,19.90
2023-01-09T00:06:31.505Z,16.50
2023-01-09T00:08:58.582Z,17.13
2023-01-09T00:11:26.519Z,16.60
2023-01-09T00:13:53.618Z,19.83
2023-01-09T00:16:20.845Z,16.47
2023-01-09T00:18:47.785Z,21.60
2023-01-09T00:21:16.032Z,24.23
2023-01-09T00:23:42.994Z,16.97
2023-01-09T00:26:18.726Z,17.63
2023-01-09T00:28:50.256Z,21.73
2023-01-09T00:31:18.874Z,16.43
2023-01-09T00:34:07.714Z,18.87
2023-01-09T00:36:34.584Z,20.23
2023-01-09T00:39:02.023Z,20.43
2023-01-09T00:41:44.536Z,21.27
2023-01-09T00:44:29.762Z,21.20
2023-01-09T00:47:07.776Z,20.30
2023-01-09T00:49:37.789Z,18.17
2023-01-09T00:52:10.162Z,18.43
2023-01-09T00:54:39.355Z,18.03
2023-01-09T00:57:09.530Z,20.10
2023-01-09T00:59:36.508Z,19.27
2023-01-09T01:02:03.521Z,17.20
2023-01-09T01:04:49.010Z,23.50
2023-01-09T01:07:34.461Z,25.37
2023-01-09T01:10:01.398Z,23.17
2023-01-09T01:12:28.243Z,25.87
2023-01-09T01:14:55.119Z,27.87
2023-01-09T01:17:22.055Z,17.70
2023-01-09T01:19:49.092Z,14.60
2023-01-09T01:22:16.211Z,24.80
2023-01-09T01:24:43.121Z,20.27
2023-01-09T01:27:10.033Z,23.40
2023-01-09T01:29:36.922Z,20.57
2023-01-09T01:32:04.205Z,21.97
2023-01-09T01:34:31.283Z,18.30
2023-01-09T01:36:58.239Z,20.77
2023-01-09T01:39:25.155Z,25.20
2023-01-09T01:41:52.041Z,18.03
2023-01-09T01:45:01.586Z,24.83
2023-01-09T01:48:04.009Z,23.30
2023-01-09T01:50:57.205Z,20.47
2023-01-09T01:54:01.379Z,20.67
2023-01-09T01:56:47.047Z,18.03
2023-01-09T01:59:24.056Z,26.40
2023-01-09T02:01:58.164Z,17.93
2023-01-09T02:04:26.787Z,21.50
2023-01-09T02:06:57.072Z,19.70
2023-01-09T02:09:25.554Z,24.00
2023-01-09T02:11:58.424Z,22.33
2023-01-09T02:14:31.982Z,21.60
2023-01-09T02:17:51.248Z,21.13
2023-01-09T02:21:10.317Z,23.20
2023-01-09T02:24:05.120Z,22.67
2023-01-09T02:26:57.419Z,21.37
2023-01-09T02:30:23.872Z,16.47
2023-01-09T02:33:55.700Z,16.80
2023-01-09T02:36:47.252Z,21.80
2023-01-09T02:39:58.708Z,23.47
2023-01-09T02:42:27.060Z,25.40
2023-01-09T02:44:54.135Z,22.80
2023-01-09T02:47:20.923Z,19.53
2023-01-09T02:50:02.337Z,24.33
2023-01-09T02:53:20.021Z,23.70
2023-01-09T02:56:44.397Z,26.93
2023-01-09T02:59:52.620Z,19.67
2023-01-09T03:03:07.516Z,23.70
2023-01-09T03:05:57.136Z,28.90
2023-01-09T03:08:40.466Z,25.80
2023-01-09T03:11:08.951Z,23.90
2023-01-09T03:14:03.038Z,30.97
2023-01-09T03:16:37.688Z,26.37
2023-01-09T03:19:19.093Z,25.73
2023-01-09T03:21:48.822Z,23.80
2023-01-09T03:24:15.803Z,21.57
2023-01-09T03:26:43.296Z,21.80
2023-01-09T03:29:10.732Z,26.37
2023-01-09T03:31:37.637Z,24.50
2023-01-09T03:34:05.015Z,30.17
2023-01-09T03:36:32.367Z,23.10
2023-01-09T03:38:59.298Z,22.20
2023-01-09T03:41:26.208Z,23.73
2023-01-09T03:43:53.088Z,24.57
2023-01-09T03:46:20.024Z,26.70
2023-01-09T03:48:46.885Z,27.77
2023-01-09T03:51:13.768Z,29.53
2023-01-09T03:53:41.639Z,24.00
2023-01-09T03:56:08.651Z,22.50
2023-01-09T03:58:35.543Z,33.22
2023-01-09T04:01:09.306Z,23.48
2023-01-09T04:03:36.451Z,30.83
2023-01-09T04:06:03.689Z,26.70
2023-01-09T04:08:30.732Z,27.57
2023-01-09T04:10:57.706Z,28.90
2023-01-09T04:13:24.696Z,29.20
2023-01-09T04:15:51.572Z,43.05
2023-01-09T04:18:18.504Z,28.07
2023-01-09T04:20:48.613Z,28.90
2023-01-09T04:23:16.657Z,31.48
2023-01-09T04:25:43.595Z,24.77
2023-01-09T04:28:10.487Z,35.97
2023-01-09T04:30:37.435Z,28.40
2023-01-09T04:33:04.350Z,29.33
2023-01-09T04:35:31.228Z,29.58
2023-01-09T04:37:58.572Z,27.60
2023-01-09T04:40:25.441Z,26.50
2023-01-09T04:42:52.309Z,29.80
2023-01-09T04:45:19.212Z,24.77
2023-01-09T04:47:46.097Z,25.07
2023-01-09T04:50:13.358Z,27.57
2023-01-09T04:52:40.774Z,26.47
2023-01-09T04:55:09.423Z,23.92
2023-01-09T04:57:36.937Z,24.93
2023-01-09T05:00:09.612Z,28.00
2023-01-09T05:02:38.147Z,24.60
2023-01-09T05:05:11.720Z,22.97
2023-01-09T05:07:39.379Z,23.57
2023-01-09T05:10:08.653Z,26.53
2023-01-09T05:12:36.276Z,24.40
2023-01-09T05:15:06.298Z,22.77
2023-01-09T05:17:33.179Z,21.43
2023-01-09T05:20:03.037Z,25.00
2023-01-09T05:22:29.882Z,27.40
2023-01-09T05:24:57.556Z,25.13
2023-01-09T05:27:27.129Z,29.93
2023-01-09T05:29:54.011Z,26.10
2023-01-09T05:32:20.869Z,22.30
2023-01-09T05:34:47.774Z,25.53
2023-01-09T05:37:14.663Z,26.63
2023-01-09T05:39:41.530Z,24.30
2023-01-09T05:42:08.446Z,22.03
2023-01-09T05:44:35.283Z,24.40
2023-01-09T05:47:03.006Z,23.73
2023-01-09T05:49:29.983Z,24.70
2023-01-09T05:51:56.856Z,16.97
2023-01-09T05:54:23.944Z,21.67
2023-01-09T05:56:50.793Z,14.03
2023-01-09T05:59:17.765Z,16.60
2023-01-09T06:01:44.731Z,15.57
2023-01-09T06:04:11.708Z,14.27
2023-01-09T06:06:39.757Z,16.80
2023-01-09T06:09:07.136Z,24.73
2023-01-09T06:11:35.649Z,15.93
2023-01-09T06:14:02.891Z,14.87
2023-01-09T06:16:29.837Z,12.53
2023-01-09T06:18:56.720Z,11.10
2023-01-09T06:21:24.596Z,15.80
2023-01-09T06:23:51.637Z,12.27
2023-01-09T06:26:18.500Z,10.20
2023-01-09T06:28:45.367Z,8.57
2023-01-09T06:31:13.157Z,9.47
2023-01-09T06:33:40.615Z,9.07
2023-01-09T06:36:08.557Z,7.70
2023-01-09T06:38:35.464Z,7.20
2023-01-09T06:41:02.370Z,6.40
2023-01-09T06:43:29.300Z,5.60
2023-01-09T06:45:56.984Z,5.20
2023-01-09T06:48:27.036Z,5.13
2023-01-09T06:50:54.934Z,4.40
2023-01-09T06:53:21.911Z,4.37
2023-01-09T06:55:49.215Z,3.07
2023-01-09T06:58:16.317Z,3.33
2023-01-09T07:00:43.438Z,2.50
2023-01-09T07:03:11.469Z,2.60
2023-01-09T07:05:42.792Z,2.70
2023-01-09T07:08:10.164Z,1.93
2023-01-09T07:10:37.231Z,2.83
2023-01-09T07:13:04.237Z,1.83
2023-01-09T07:15:31.165Z,1.60
2023-01-09T07:17:58.046Z,1.13
2023-01-09T07:20:24.949Z,1.40
2023-01-09T07:22:51.835Z,1.30
2023-01-09T07:25:18.805Z,1.37
2023-01-09T07:27:45.736Z,2.27
2023-01-09T07:30:14.130Z,2.20
2023-01-09T07:32:41.088Z,1.23
2023-01-09T07:35:10.686Z,1.40
2023-01-09T07:37:37.661Z,1.67
2023-01-09T07:40:05.361Z,2.73
2023-01-09T07:42:32.494Z,1.27
2023-01-09T07:44:59.428Z,1.63
2023-01-09T07:47:26.382Z,1.40
2023-01-09T07:49:53.239Z,1.70
2023-01-09T07:52:20.426Z,2.53
2023-01-09T07:54:47.313Z,2.43
2023-01-09T07:57:14.192Z,1.60
2023-01-09T07:59:41.080Z,3.17
2023-01-09T08:02:09.590Z,2.00
2023-01-09T08:04:36.514Z,1.60
2023-01-09T08:07:03.618Z,2.83
2023-01-09T08:09:31.007Z,1.23
2023-01-09T08:11:57.883Z,1.80
2023-01-09T08:14:24.794Z,1.93
2023-01-09T08:16:51.695Z,1.87
2023-01-09T08:19:18.865Z,2.80
2023-01-09T08:21:45.883Z,1.93
2023-01-09T08:24:12.813Z,2.10
2023-01-09T08:26:40.347Z,2.17
2023-01-09T08:29:07.205Z,2.20
2023-01-09T08:31:34.198Z,1.73
2023-01-09T08:34:01.248Z,2.43
2023-01-09T08:36:28.149Z,2.40
2023-01-09T08:38:55.600Z,5.00
2023-01-09T08:41:41.154Z,1.87
2023-01-09T08:44:26.620Z,3.53
2023-01-09T08:47:05.455Z,2.30
2023-01-09T08:49:42.344Z,3.80
2023-01-09T08:52:09.432Z,2.00
2023-01-09T08:54:38.794Z,2.30
2023-01-09T08:57:08.389Z,4.80
2023-01-09T08:59:35.519Z,13.40
2023-01-09T09:03:43.998Z,3.00
2023-01-09T09:06:10.856Z,4.63
2023-01-09T09:08:37.732Z,2.70
2023-01-09T09:11:04.766Z,2.67
2023-01-09T09:13:31.626Z,2.90
2023-01-09T09:15:58.588Z,3.43
2023-01-09T09:18:25.485Z,9.87
2023-01-09T09:20:52.339Z,2.33
2023-01-09T09:23:19.241Z,4.00
2023-01-09T09:25:46.633Z,1.40
2023-01-09T09:28:13.581Z,8.13
2023-01-09T09:30:40.532Z,5.60
2023-01-09T09:33:07.417Z,2.93
2023-01-09T09:35:34.663Z,8.90
2023-01-09T09:38:05.655Z,3.20
2023-01-09T09:41:34.140Z,3.03
2023-01-09T09:44:53.404Z,2.70
2023-01-09T09:47:48.921Z,2.33
2023-01-09T09:50:49.772Z,2.73
2023-01-09T09:53:59.714Z,2.30
2023-01-09T09:56:39.249Z,5.83
2023-01-09T09:59:26.755Z,1.60
2023-01-09T10:02:11.930Z,1.33
2023-01-09T10:04:51.159Z,1.33
2023-01-09T10:07:34.598Z,1.60
2023-01-09T10:10:10.595Z,1.17
2023-01-09T10:12:58.402Z,3.50
2023-01-09T10:15:56.748Z,2.83
2023-01-09T10:19:19.336Z,1.73
2023-01-09T10:23:10.353Z,3.40
2023-01-09T10:26:19.284Z,1.80
2023-01-09T10:29:35.995Z,1.23
2023-01-09T10:32:44.436Z,3.27
2023-01-09T10:36:17.168Z,1.30
2023-01-09T10:38:51.466Z,1.53
2023-01-09T10:41:38.176Z,1.47
2023-01-09T10:44:41.433Z,4.43
2023-01-09T10:47:32.131Z,1.00
2023-01-09T10:50:02.264Z,3.13
2023-01-09T10:52:41.947Z,7.53
2023-01-09T10:55:30.607Z,0.80
2023-01-09T10:58:22.456Z,1.87
2023-01-09T11:00:51.217Z,4.30
2023-01-09T11:03:23.182Z,5.80
2023-01-09T11:05:58.569Z,2.60
2023-01-09T11:08:41.965Z,4.17
2023-01-09T11:11:10.679Z,3.30
2023-01-09T11:13:40.839Z,1.33
2023-01-09T11:16:23.507Z,2.03
2023-01-09T11:18:57.554Z,2.93
2023-01-09T11:21:41.730Z,7.97
2023-01-09T11:24:26.331Z,13.10
2023-01-09T11:27:14.345Z,8.67
2023-01-09T11:29:43.347Z,2.90
2023-01-09T11:32:24.710Z,1.37
2023-01-09T11:34:51.617Z,1.60
2023-01-09T11:37:31.646Z,3.40
2023-01-09T11:40:01.407Z,1.67
2023-01-09T11:42:48.593Z,1.77
2023-01-09T11:45:27.301Z,1.20
2023-01-09T11:47:54.256Z,2.90
2023-01-09T11:50:26.888Z,1.60
2023-01-09T11:53:18.658Z,2.27
2023-01-09T11:55:56.709Z,4.00
2023-01-09T11:58:24.351Z,1.83
2023-01-09T12:01:31.661Z,2.20
2023-01-09T12:04:33.787Z,1.90
2023-01-09T12:08:02.868Z,2.87
2023-01-09T12:11:21.860Z,1.40
2023-01-09T12:14:51.164Z,13.63
2023-01-09T12:18:02.359Z,1.50
2023-01-09T12:20:39.808Z,1.43
2023-01-09T12:23:40.178Z,3.00
2023-01-09T12:26:33.009Z,1.83
2023-01-09T12:29:05.286Z,3.37
2023-01-09T12:32:46.063Z,2.50
2023-01-09T12:35:35.572Z,1.43
2023-01-09T12:38:39.771Z,2.47
2023-01-09T12:41:47.016Z,1.80
2023-01-09T12:44:53.044Z,1.43
2023-01-09T12:47:52.493Z,3.80
2023-01-09T12:50:37.500Z,2.23
2023-01-09T12:53:29.469Z,1.50
2023-01-09T12:56:07.680Z,1.20
2023-01-09T12:59:20.324Z,2.00
2023-01-09T13:01:51.424Z,2.83
2023-01-09T13:04:44.509Z,3.50
2023-01-09T13:07:47.035Z,1.17
2023-01-09T13:10:30.699Z,2.30
2023-01-09T13:13:06.371Z,9.50
2023-01-09T13:15:44.039Z,1.20
2023-01-09T13:18:30.419Z,2.03
2023-01-09T13:20:57.915Z,1.50
2023-01-09T13:23:52.435Z,1.80
2023-01-09T13:26:36.656Z,2.00
2023-01-09T13:29:22.236Z,1.40
2023-01-09T13:32:29.249Z,2.10
2023-01-09T13:34:57.566Z,3.80
2023-01-09T13:37:31.839Z,2.70
2023-01-09T13:40:19.693Z,1.40
2023-01-09T13:43:11.209Z,1.50
2023-01-09T13:45:40.209Z,2.00
2023-01-09T13:48:17.666Z,3.37
2023-01-09T13:50:47.739Z,2.47
2023-01-09T13:53:24.994Z,1.53
2023-01-09T13:55:58.524Z,1.60
2023-01-09T13:58:37.825Z,1.50
2023-01-09T14:01:41.368Z,1.90
2023-01-09T14:04:14.931Z,2.00
2023-01-09T14:06:44.805Z,3.17
2023-01-09T14:09:23.062Z,1.67
2023-01-09T14:12:06.753Z,4.23
2023-01-09T14:14:35.252Z,2.63
2023-01-09T14:17:03.286Z,2.00
2023-01-09T14:19:40.296Z,1.90
2023-01-09T14:22:35.139Z,1.97
2023-01-09T14:25:23.796Z,2.30
2023-01-09T14:27:59.796Z,1.83
2023-01-09T14:30:26.580Z,5.63
2023-01-09T14:33:18.839Z,1.57
2023-01-09T14:36:22.049Z,1.37
2023-01-09T14:39:00.228Z,1.50
2023-01-09T14:41:57.540Z,2.20
2023-01-09T14:44:45.755Z,2.17
2023-01-09T14:47:30.943Z,2.03
2023-01-09T14:50:27.581Z,2.67
2023-01-09T14:53:20.261Z,2.10
2023-01-09T14:56:00.747Z,1.90
2023-01-09T14:58:36.680Z,2.30
2023-01-09T15:01:27.055Z,4.73
2023-01-09T15:04:04.739Z,1.33
2023-01-09T15:06:42.736Z,3.03
2023-01-09T15:09:28.684Z,2.70
2023-01-09T15:12:05.376Z,2.23
2023-01-09T15:14:43.120Z,2.83
2023-01-09T15:17:33.709Z,2.10
2023-01-09T15:20:06.473Z,6.10
2023-01-09T15:22:37.462Z,4.17
2023-01-09T15:25:39.638Z,1.70
2023-01-09T15:28:34.815Z,3.03
2023-01-09T15:31:13.161Z,4.03
2023-01-09T15:33:44.609Z,3.53
2023-01-09T15:36:25.388Z,2.10
2023-01-09T15:38:54.603Z,2.63
2023-01-09T15:41:48.474Z,4.20
2023-01-09T15:44:26.152Z,12.10
2023-01-09T15:47:00.707Z,3.27
2023-01-09T15:49:28.243Z,4.57
2023-01-09T15:51:56.258Z,1.40
2023-01-09T15:54:33.379Z,1.60
2023-01-09T15:57:25.216Z,3.73
2023-01-09T16:00:17.332Z,2.70
2023-01-09T16:03:06.525Z,2.40
2023-01-09T16:05:33.705Z,3.20
2023-01-09T16:08:02.052Z,3.93
2023-01-09T16:10:38.133Z,6.00
2023-01-09T16:13:06.382Z,6.07
2023-01-09T16:15:35.315Z,8.03
2023-01-09T16:18:17.404Z,5.27
2023-01-09T16:20:45.739Z,4.70
2023-01-09T16:23:31.089Z,17.17
2023-01-09T16:26:19.756Z,5.70
2023-01-09T16:28:46.693Z,10.77
2023-01-09T16:31:25.514Z,16.10
2023-01-09T16:34:06.223Z,1.47
2023-01-09T16:36:37.264Z,6.67
2023-01-09T16:39:05.038Z,2.30
2023-01-09T16:41:51.054Z,2.00
2023-01-09T16:44:19.174Z,7.40
2023-01-09T16:46:46.446Z,2.63
2023-01-09T16:49:24.301Z,1.33
2023-01-09T16:51:52.825Z,4.53
2023-01-09T16:54:21.085Z,5.00
2023-01-09T16:56:54.189Z,3.83
2023-01-09T16:59:28.229Z,5.00
2023-01-09T17:01:55.705Z,3.93
2023-01-09T17:04:25.983Z,2.60
2023-01-09T17:06:52.862Z,2.97
2023-01-09T17:09:23.151Z,3.73
2023-01-09T17:11:51.132Z,3.53
2023-01-09T17:14:18.019Z,7.83
2023-01-09T17:16:48.062Z,4.53
2023-01-09T17:19:20.815Z,1.73
2023-01-09T17:21:47.967Z,3.80
2023-01-09T17:24:34.269Z,3.03
2023-01-09T17:27:21.720Z,1.50
2023-01-09T17:29:48.764Z,1.53
2023-01-09T17:32:19.351Z,2.50
2023-01-09T17:34:46.422Z,14.47
2023-01-09T17:37:19.332Z,3.33
2023-01-09T17:39:46.557Z,1.90
2023-01-09T17:42:13.442Z,1.87
2023-01-09T17:44:40.488Z,4.00
2023-01-09T17:47:15.362Z,3.80
2023-01-09T17:49:42.958Z,2.40
2023-01-09T17:52:10.254Z,1.50
2023-01-09T17:54:37.182Z,1.93
2023-01-09T17:57:04.496Z,2.13
2023-01-09T17:59:31.660Z,1.53
2023-01-09T18:01:58.961Z,1.63
2023-01-09T18:04:25.919Z,12.57
2023-01-09T18:06:54.463Z,31.13
2023-01-09T18:09:21.430Z,16.37
2023-01-09T18:11:48.300Z,82.27
2023-01-09T18:14:16.953Z,4.87
2023-01-09T18:16:45.095Z,16.13
2023-01-09T18:19:12.171Z,3.50
2023-01-09T18:21:39.115Z,15.70
2023-01-09T18:24:06.730Z,9.57
2023-01-09T18:26:33.622Z,2.43
2023-01-09T18:29:01.746Z,4.90
2023-01-09T18:31:30.496Z,8.07
2023-01-09T18:34:02.152Z,2.20
2023-01-09T18:36:29.791Z,2.00
2023-01-09T18:39:04.786Z,3.57
2023-01-09T18:41:32.024Z,9.50
2023-01-09T18:44:01.592Z,4.83
2023-01-09T18:46:32.737Z,2.63
2023-01-09T18:49:04.599Z,6.83
2023-01-09T18:51:35.632Z,2.87
2023-01-09T18:54:02.680Z,3.50
2023-01-09T18:56:29.739Z,3.87
2023-01-09T18:58:58.065Z,4.23
2023-01-09T19:01:29.828Z,2.10
2023-01-09T19:03:59.633Z,4.30
2023-01-09T19:06:30.842Z,3.93
2023-01-09T19:09:01.143Z,16.07
2023-01-09T19:11:28.073Z,6.20
2023-01-09T19:13:55.130Z,6.80
2023-01-09T19:16:22.124Z,4.80
2023-01-09T19:18:49.160Z,11.83
2023-01-09T19:21:21.932Z,16.03
2023-01-09T19:23:49.932Z,11.77
2023-01-09T19:26:24.527Z,5.90
2023-01-09T19:28:57.408Z,7.97
2023-01-09T19:31:28.973Z,13.43
2023-01-09T19:33:57.678Z,8.30
2023-01-09T19:36:25.526Z,12.80
2023-01-09T19:39:00.998Z,2.70
2023-01-09T19:41:29.504Z,5.30
2023-01-09T19:43:58.637Z,4.07
2023-01-09T19:46:26.456Z,12.27
2023-01-09T19:48:54.240Z,7.90
2023-01-09T19:51:22.665Z,4.90
2023-01-09T19:56:31.160Z,6.93
2023-01-09T19:59:02.740Z,11.77
2023-01-09T20:01:37.242Z,10.25
2023-01-09T20:04:10.157Z,13.23
2023-01-09T20:06:43.794Z,9.23
2023-01-09T20:09:12.249Z,17.80
2023-01-09T20:11:41.294Z,23.50
2023-01-09T20:14:16.319Z,24.23
2023-01-09T20:16:43.860Z,23.15
2023-01-09T20:19:14.008Z,4.10
2023-01-09T20:21:42.576Z,5.30
2023-01-09T20:24:16.502Z,13.77
2023-01-09T20:26:45.972Z,14.67
2023-01-09T20:29:13.036Z,6.60
2023-01-09T20:31:40.009Z,16.83
2023-01-09T20:34:06.982Z,7.70
2023-01-09T20:36:34.746Z,11.93
2023-01-09T20:39:07.005Z,11.40
2023-01-09T20:41:34.615Z,3.63
2023-01-09T20:44:07.068Z,3.07
2023-01-09T20:46:40.325Z,2.13
2023-01-09T20:49:13.808Z,4.33
2023-01-09T20:51:51.127Z,3.83
2023-01-09T20:54:21.415Z,2.93
2023-01-09T20:56:48.655Z,2.10
2023-01-09T20:59:22.616Z,2.90
2023-01-09T21:01:50.766Z,5.03
2023-01-09T21:04:18.237Z,2.93
2023-01-09T21:06:45.202Z,2.17
2023-01-09T21:09:12.082Z,2.80
2023-01-09T21:11:39.024Z,2.97
2023-01-09T21:14:05.987Z,1.97
2023-01-09T21:16:33.073Z,2.37
2023-01-09T21:19:00.101Z,2.60
2023-01-09T21:21:27.751Z,3.17
2023-01-09T21:24:00.461Z,2.83
2023-01-09T21:26:30.279Z,2.40
2023-01-09T21:29:01.438Z,3.13
2023-01-09T21:31:35.150Z,4.00
2023-01-09T21:34:07.356Z,2.80
2023-01-09T21:36:35.944Z,4.17
2023-01-09T21:39:08.165Z,5.20
2023-01-09T21:41:54.422Z,3.40
2023-01-09T21:44:40.054Z,2.80
2023-01-09T21:47:06.958Z,3.10
2023-01-09T21:49:35.835Z,3.20
2023-01-09T21:52:04.510Z,3.63
2023-01-09T21:54:32.696Z,4.97
2023-01-09T21:56:59.725Z,3.00
2023-01-09T21:59:27.022Z,5.03
2023-01-09T22:01:53.984Z,2.80
2023-01-09T22:04:25.931Z,3.40
2023-01-09T22:06:52.826Z,3.47
2023-01-09T22:09:20.238Z,2.27
2023-01-09T22:11:47.764Z,4.23
2023-01-09T22:14:19.059Z,3.30
2023-01-09T22:16:46.898Z,3.63
2023-01-09T22:19:17.980Z,2.50
2023-01-09T22:21:45.634Z,3.30
2023-01-09T22:24:19.041Z,2.87
2023-01-09T22:26:46.596Z,2.77
2023-01-09T22:29:15.928Z,2.73
2023-01-09T22:31:43.171Z,3.13
2023-01-09T22:34:17.589Z,2.60
2023-01-09T22:36:46.723Z,9.10
2023-01-09T22:39:17.736Z,3.47
2023-01-09T22:41:49.861Z,3.80
2023-01-09T22:44:16.748Z,4.53
2023-01-09T22:46:43.614Z,4.23
2023-01-09T22:49:12.184Z,4.07
2023-01-09T22:51:39.153Z,3.17
2023-01-09T22:54:06.219Z,3.13
2023-01-09T22:56:33.246Z,3.80
2023-01-09T22:59:00.854Z,2.83
2023-01-09T23:01:28.163Z,3.13
2023-01-09T23:03:55.052Z,3.10
2023-01-09T23:06:23.539Z,3.93
2023-01-09T23:08:52.692Z,3.40
2023-01-09T23:11:47.917Z,2.95
2023-01-09T23:14:14.844Z,3.10
2023-01-09T23:16:42.012Z,3.10
2023-01-09T23:19:10.286Z,2.93
2023-01-09T23:21:37.499Z,2.93
2023-01-09T23:24:06.849Z,4.73
2023-01-09T23:26:35.370Z,4.57
2023-01-09T23:29:02.759Z,2.70
2023-01-09T23:31:29.686Z,2.93
2023-01-09T23:33:56.567Z,3.03
2023-01-09T23:36:23.482Z,3.40
2023-01-09T23:38:50.393Z,2.80
2023-01-09T23:41:17.918Z,3.10
2023-01-09T23:43:45.880Z,5.50
2023-01-09T23:46:12.790Z,3.07
2023-01-09T23:48:40.127Z,2.70
2023-01-09T23:51:07.146Z,3.13
2023-01-09T23:53:34.041Z,2.50
2023-01-09T23:56:01.409Z,3.03
2023-01-09T23:58:28.298Z,2.90
